createdAt,value
2019-06-20T00:00:09.436Z,75.84
2019-06-20T00:01:09.422Z,75.84
2019-06-20T00:02:09.412Z,75.84
2019-06-20T00:03:09.403Z,75.84
2019-06-20T00:04:09.415Z,75.14
2019-06-20T00:05:09.371Z,74.74
2019-06-20T00:06:09.381Z,74.64
2019-06-20T00:07:10.825Z,74.74
2019-06-20T00:08:09.342Z,74.04
2019-06-20T00:09:09.372Z,74.64
2019-06-20T00:10:09.322Z,74.74
2019-06-20T00:11:10.763Z,74.54
2019-06-20T00:12:09.323Z,74.34
2019-06-20T00:13:09.291Z,74.30
2019-06-20T00:14:09.540Z,74.71
2019-06-20T00:15:09.294Z,74.01
2019-06-20T00:16:09.258Z,74.44
2019-06-20T00:17:09.259Z,74.71
2019-06-20T00:18:09.245Z,74.30
2019-06-20T00:19:09.269Z,74.10
2019-06-20T00:20:09.226Z,74.01
2019-06-20T00:21:09.204Z,74.44
2019-06-20T00:22:09.195Z,74.44
2019-06-20T00:23:09.206Z,74.74
2019-06-20T00:24:09.200Z,74.04
2019-06-20T00:25:09.157Z,74.44
2019-06-20T00:26:10.296Z,73.94
2019-06-20T00:27:09.147Z,73.64
2019-06-20T00:28:09.133Z,73.74
2019-06-20T00:29:09.954Z,73.94
2019-06-20T00:30:10.454Z,73.44
2019-06-20T00:31:09.792Z,73.64
2019-06-20T00:32:09.096Z,73.54
2019-06-20T00:33:09.070Z,73.54
2019-06-20T00:34:09.102Z,73.33
2019-06-20T00:35:09.051Z,73.84
2019-06-20T00:36:09.039Z,73.94
2019-06-20T00:37:09.033Z,74.24
2019-06-20T00:38:09.016Z,74.24
2019-06-20T00:39:09.020Z,74.24
2019-06-20T00:40:09.791Z,74.34
2019-06-20T00:41:08.988Z,73.94
2019-06-20T00:42:08.977Z,73.24
2019-06-20T00:43:17.378Z,72.94
2019-06-20T00:44:09.957Z,73.84
2019-06-20T00:45:08.974Z,73.44
2019-06-20T00:46:08.927Z,73.74
2019-06-20T00:47:08.926Z,74.24
2019-06-20T00:48:08.906Z,74.44
2019-06-20T00:49:08.903Z,74.24
2019-06-20T00:50:08.940Z,74.44
2019-06-20T00:51:08.893Z,74.24
2019-06-20T00:52:08.915Z,74.74
2019-06-20T00:53:08.864Z,75.45
2019-06-20T00:54:08.863Z,74.74
2019-06-20T00:55:08.872Z,74.94
2019-06-20T00:56:08.832Z,75.08
2019-06-20T00:57:09.325Z,75.58
2019-06-20T00:58:08.810Z,75.88
2019-06-20T00:59:09.721Z,75.98
2019-06-20T01:00:08.830Z,76.28
2019-06-20T01:01:08.801Z,76.28
2019-06-20T01:02:08.780Z,76.58
2019-06-20T01:03:08.759Z,77.09
2019-06-20T01:04:08.752Z,76.85
2019-06-20T01:05:08.765Z,75.95
2019-06-20T01:06:08.718Z,75.45
2019-06-20T01:07:08.708Z,75.34
2019-06-20T01:08:08.706Z,74.54
2019-06-20T01:09:09.378Z,75.24
2019-06-20T01:10:09.365Z,75.88
2019-06-20T01:11:08.666Z,76.58
2019-06-20T01:12:08.655Z,77.02
2019-06-20T01:13:08.646Z,77.66
2019-06-20T01:14:08.635Z,78.16
2019-06-20T01:15:08.656Z,78.06
2019-06-20T01:16:08.612Z,77.86
2019-06-20T01:17:08.626Z,78.12
2019-06-20T01:18:08.591Z,78.33
2019-06-20T01:19:08.579Z,78.73
2019-06-20T01:20:08.599Z,78.83
2019-06-20T01:21:08.580Z,79.23
2019-06-20T01:22:10.009Z,78.73
2019-06-20T01:23:08.546Z,78.69
2019-06-20T01:24:08.530Z,78.29
2019-06-20T01:25:08.568Z,78.29
2019-06-20T01:26:08.519Z,78.42
2019-06-20T01:27:08.489Z,78.42
2019-06-20T01:28:08.486Z,78.53
2019-06-20T01:29:08.487Z,78.83
2019-06-20T01:30:08.517Z,79.03
2019-06-20T01:31:08.459Z,78.93
2019-06-20T01:32:08.458Z,78.53
2019-06-20T01:33:08.436Z,78.22
2019-06-20T01:34:08.426Z,78.42
2019-06-20T01:35:09.302Z,78.42
2019-06-20T01:36:08.413Z,78.73
2019-06-20T01:37:08.393Z,78.53
2019-06-20T01:38:08.381Z,79.23
2019-06-20T01:39:08.372Z,78.93
2019-06-20T01:40:08.906Z,78.73
2019-06-20T01:41:08.345Z,78.53
2019-06-20T01:42:08.343Z,78.22
2019-06-20T01:43:08.333Z,78.22
2019-06-20T01:44:08.322Z,78.53
2019-06-20T01:45:08.331Z,78.22
2019-06-20T01:46:09.152Z,78.33
2019-06-20T01:47:08.891Z,78.03
2019-06-20T01:48:08.272Z,78.33
2019-06-20T01:49:08.261Z,78.42
2019-06-20T01:50:08.278Z,78.42
2019-06-20T01:51:08.273Z,78.63
2019-06-20T01:52:08.232Z,78.53
2019-06-20T01:53:08.228Z,78.33
2019-06-20T01:54:08.218Z,78.53
2019-06-20T01:55:10.338Z,78.66
2019-06-20T01:56:08.217Z,78.86
2019-06-20T01:57:08.186Z,78.97
2019-06-20T01:58:08.195Z,79.17
2019-06-20T01:59:08.211Z,79.27
2019-06-20T02:00:08.181Z,79.37
2019-06-20T02:01:08.155Z,79.61
2019-06-20T02:02:08.155Z,79.67
2019-06-20T02:03:08.116Z,79.77
2019-06-20T02:04:08.125Z,79.91
2019-06-20T02:05:08.095Z,80.01
2019-06-20T02:06:08.113Z,80.11
2019-06-20T02:07:08.071Z,80.17
2019-06-20T02:08:08.079Z,80.27
2019-06-20T02:09:08.043Z,80.27
2019-06-20T02:10:08.031Z,79.97
2019-06-20T02:11:08.062Z,80.47
2019-06-20T02:12:08.011Z,80.17
2019-06-20T02:13:08.012Z,80.37
2019-06-20T02:14:08.080Z,80.27
2019-06-20T02:15:07.994Z,80.17
2019-06-20T02:16:08.029Z,80.17
2019-06-20T02:17:07.965Z,80.37
2019-06-20T02:18:07.960Z,80.68
2019-06-20T02:19:07.939Z,80.77
2019-06-20T02:20:07.949Z,80.77
2019-06-20T02:21:07.953Z,80.68
2019-06-20T02:22:07.918Z,80.57
2019-06-20T02:23:07.916Z,80.68
2019-06-20T02:24:07.905Z,80.68
2019-06-20T02:25:07.896Z,80.57
2019-06-20T02:26:07.895Z,80.27
2019-06-20T02:27:07.855Z,79.97
2019-06-20T02:28:07.844Z,79.77
2019-06-20T02:29:08.502Z,79.67
2019-06-20T02:30:07.824Z,80.27
2019-06-20T02:31:07.862Z,81.48
2019-06-20T02:32:07.803Z,80.98
2019-06-20T02:33:07.791Z,81.64
2019-06-20T02:34:07.815Z,81.24
2019-06-20T02:35:07.779Z,80.63
2019-06-20T02:36:07.761Z,81.14
2019-06-20T02:37:07.769Z,80.43
2019-06-20T02:38:07.731Z,80.13
2019-06-20T02:39:07.749Z,80.54
2019-06-20T02:40:07.709Z,80.74
2019-06-20T02:41:08.508Z,80.77
2019-06-20T02:42:07.724Z,81.07
2019-06-20T02:43:07.685Z,81.18
2019-06-20T02:44:24.756Z,81.27
2019-06-20T02:45:08.666Z,81.48
2019-06-20T02:46:07.672Z,81.07
2019-06-20T02:47:07.724Z,81.48
2019-06-20T02:48:07.639Z,81.78
2019-06-20T02:49:07.619Z,81.98
2019-06-20T02:50:07.606Z,82.28
2019-06-20T02:51:07.595Z,82.18
2019-06-20T02:52:07.622Z,81.58
2019-06-20T02:53:07.584Z,81.88
2019-06-20T02:54:07.580Z,81.78
2019-06-20T02:55:07.561Z,81.07
2019-06-20T02:56:07.544Z,81.14
2019-06-20T02:57:07.602Z,81.54
2019-06-20T02:58:07.557Z,81.14
2019-06-20T02:59:07.512Z,80.74
2019-06-20T03:00:08.044Z,80.94
2019-06-20T03:01:07.515Z,81.14
2019-06-20T03:02:07.618Z,80.83
2019-06-20T03:03:07.576Z,80.63
2019-06-20T03:04:07.458Z,80.54
2019-06-20T03:05:07.449Z,80.63
2019-06-20T03:06:07.456Z,80.54
2019-06-20T03:07:07.457Z,80.54
2019-06-20T03:08:07.417Z,80.88
2019-06-20T03:09:07.415Z,80.33
2019-06-20T03:10:07.394Z,80.33
2019-06-20T03:11:07.430Z,80.33
2019-06-20T03:12:07.395Z,80.83
2019-06-20T03:13:09.457Z,80.83
2019-06-20T03:14:07.346Z,80.43
2019-06-20T03:15:07.337Z,80.13
2019-06-20T03:16:07.348Z,80.04
2019-06-20T03:17:07.354Z,80.24
2019-06-20T03:18:07.373Z,80.98
2019-06-20T03:19:07.293Z,81.14
2019-06-20T03:20:07.334Z,80.63
2019-06-20T03:21:07.273Z,80.24
2019-06-20T03:22:07.334Z,80.33
2019-06-20T03:23:07.260Z,80.63
2019-06-20T03:24:07.242Z,80.24
2019-06-20T03:25:07.231Z,80.33
2019-06-20T03:26:07.220Z,80.54
2019-06-20T03:27:07.260Z,80.54
2019-06-20T03:28:07.210Z,81.14
2019-06-20T03:29:07.225Z,81.04
2019-06-20T03:30:07.952Z,80.54
2019-06-20T03:31:07.179Z,80.83
2019-06-20T03:32:08.049Z,80.83
2019-06-20T03:33:07.173Z,80.94
2019-06-20T03:34:07.170Z,80.70
2019-06-20T03:35:07.127Z,80.60
2019-06-20T03:36:08.069Z,80.50
2019-06-20T03:37:07.139Z,80.19
2019-06-20T03:38:07.103Z,80.13
2019-06-20T03:39:07.083Z,80.74
2019-06-20T03:40:07.074Z,81.34
2019-06-20T03:41:07.066Z,81.74
2019-06-20T03:42:07.094Z,82.18
2019-06-20T03:43:07.994Z,83.09
2019-06-20T03:44:07.024Z,82.98
2019-06-20T03:45:07.031Z,83.29
2019-06-20T03:46:07.024Z,83.49
2019-06-20T03:47:07.034Z,83.29
2019-06-20T03:48:06.991Z,82.98
2019-06-20T03:49:06.979Z,82.98
2019-06-20T03:50:06.975Z,82.78
2019-06-20T03:51:06.957Z,83.09
2019-06-20T03:52:06.979Z,82.58
2019-06-20T03:53:06.942Z,82.98
2019-06-20T03:54:06.929Z,82.52
2019-06-20T03:55:06.917Z,82.82
2019-06-20T03:56:06.906Z,83.67
2019-06-20T03:57:06.920Z,83.97
2019-06-20T03:58:06.876Z,84.47
2019-06-20T03:59:06.878Z,84.81
2019-06-20T04:00:06.864Z,85.42
2019-06-20T04:01:06.844Z,85.96
2019-06-20T04:02:06.835Z,86.16
2019-06-20T04:03:06.893Z,86.00
2019-06-20T04:04:06.813Z,86.21
2019-06-20T04:05:06.817Z,86.30
2019-06-20T04:06:06.817Z,86.30
2019-06-20T04:07:07.633Z,85.80
2019-06-20T04:08:06.848Z,86.00
2019-06-20T04:09:06.761Z,86.21
2019-06-20T04:10:06.807Z,85.50
2019-06-20T04:11:06.734Z,84.89
2019-06-20T04:12:06.729Z,84.59
2019-06-20T04:13:06.742Z,84.69
2019-06-20T04:14:06.710Z,84.29
2019-06-20T04:15:18.447Z,84.09
2019-06-20T04:16:08.277Z,83.75
2019-06-20T04:17:06.686Z,82.94
2019-06-20T04:18:06.704Z,83.54
2019-06-20T04:19:06.691Z,83.54
2019-06-20T04:20:06.664Z,83.14
2019-06-20T04:21:06.658Z,82.64
2019-06-20T04:22:06.631Z,81.73
2019-06-20T04:23:06.635Z,81.63
2019-06-20T04:24:06.595Z,82.10
2019-06-20T04:25:06.628Z,81.84
2019-06-20T04:26:06.590Z,82.14
2019-06-20T04:27:06.579Z,82.14
2019-06-20T04:28:06.593Z,82.84
2019-06-20T04:29:06.569Z,82.94
2019-06-20T04:30:06.694Z,82.64
2019-06-20T04:31:07.124Z,82.94
2019-06-20T04:32:06.560Z,83.65
2019-06-20T04:33:06.531Z,83.54
2019-06-20T04:34:07.223Z,84.11
2019-06-20T04:35:06.508Z,84.31
2019-06-20T04:36:06.471Z,84.65
2019-06-20T04:37:06.457Z,85.36
2019-06-20T04:38:06.908Z,85.86
2019-06-20T04:39:18.662Z,86.36
2019-06-20T04:40:07.437Z,86.66
2019-06-20T04:41:06.409Z,86.16
2019-06-20T04:42:06.407Z,86.46
2019-06-20T04:43:06.425Z,86.46
2019-06-20T04:44:06.386Z,86.57
2019-06-20T04:45:06.376Z,86.97
2019-06-20T04:46:06.367Z,86.77
2019-06-20T04:47:07.255Z,87.07
2019-06-20T04:48:06.376Z,86.36
2019-06-20T04:49:06.328Z,86.77
2019-06-20T04:50:07.216Z,87.07
2019-06-20T04:51:06.304Z,87.07
2019-06-20T04:52:06.308Z,87.17
2019-06-20T04:53:06.314Z,86.77
2019-06-20T04:54:06.285Z,87.27
2019-06-20T04:55:06.288Z,87.17
2019-06-20T04:56:06.278Z,87.67
2019-06-20T04:57:06.246Z,87.67
2019-06-20T04:58:06.281Z,87.67
2019-06-20T04:59:06.781Z,87.67
2019-06-20T05:00:06.220Z,87.57
2019-06-20T05:01:06.211Z,87.57
2019-06-20T05:02:06.230Z,87.77
2019-06-20T05:03:06.219Z,87.57
2019-06-20T05:04:06.181Z,87.47
2019-06-20T05:05:06.171Z,87.47
2019-06-20T05:06:06.170Z,87.33
2019-06-20T05:07:06.138Z,87.53
2019-06-20T05:08:06.581Z,87.53
2019-06-20T05:09:06.137Z,87.33
2019-06-20T05:10:06.117Z,87.13
2019-06-20T05:11:06.095Z,87.33
2019-06-20T05:12:06.095Z,86.93
2019-06-20T05:13:06.080Z,87.02
2019-06-20T05:14:06.093Z,86.93
2019-06-20T05:15:06.046Z,87.02
2019-06-20T05:16:06.082Z,86.72
2019-06-20T05:17:07.253Z,86.93
2019-06-20T05:18:06.024Z,86.72
2019-06-20T05:19:06.042Z,86.93
2019-06-20T05:20:06.002Z,86.83
2019-06-20T05:21:05.993Z,86.93
2019-06-20T05:22:05.980Z,86.93
2019-06-20T05:23:05.975Z,87.02
2019-06-20T05:24:06.000Z,86.83
2019-06-20T05:25:06.827Z,87.13
2019-06-20T05:26:05.939Z,87.08
2019-06-20T05:27:05.936Z,87.08
2019-06-20T05:28:05.909Z,86.79
2019-06-20T05:29:05.939Z,86.79
2019-06-20T05:30:05.898Z,86.68
2019-06-20T05:31:05.909Z,86.68
2019-06-20T05:32:05.876Z,86.44
2019-06-20T05:33:05.889Z,86.48
2019-06-20T05:34:05.892Z,86.44
2019-06-20T05:35:05.844Z,86.65
2019-06-20T05:36:05.826Z,86.34
2019-06-20T05:37:06.736Z,86.04
2019-06-20T05:38:05.838Z,86.14
2019-06-20T05:39:05.844Z,85.53
2019-06-20T05:40:05.793Z,85.64
2019-06-20T05:41:05.831Z,85.33
2019-06-20T05:42:05.770Z,85.84
2019-06-20T05:43:05.774Z,85.60
2019-06-20T05:44:05.784Z,85.39
2019-06-20T05:45:05.742Z,85.39
2019-06-20T05:46:10.773Z,85.39
2019-06-20T05:47:12.606Z,85.16
2019-06-20T05:48:07.622Z,85.05
2019-06-20T05:49:05.739Z,84.45
2019-06-20T05:50:05.679Z,84.45
2019-06-20T05:51:06.362Z,84.25
2019-06-20T05:52:05.676Z,84.65
2019-06-20T05:53:05.990Z,84.95
2019-06-20T05:54:05.675Z,85.05
2019-06-20T05:55:05.864Z,84.99
2019-06-20T05:56:05.616Z,84.75
2019-06-20T05:57:05.607Z,85.36
2019-06-20T05:58:05.590Z,84.75
2019-06-20T05:59:05.619Z,84.95
2019-06-20T06:00:05.598Z,84.65
2019-06-20T06:01:05.563Z,84.55
2019-06-20T06:02:05.554Z,84.41
2019-06-20T06:03:07.272Z,83.91
2019-06-20T06:04:05.574Z,84.01
2019-06-20T06:05:05.540Z,83.51
2019-06-20T06:06:05.510Z,83.57
2019-06-20T06:07:05.502Z,83.37
2019-06-20T06:08:06.823Z,82.57
2019-06-20T06:09:05.502Z,81.36
2019-06-20T06:10:05.638Z,81.32
2019-06-20T06:11:05.451Z,81.42
2019-06-20T06:12:06.000Z,81.73
2019-06-20T06:13:05.444Z,81.42
2019-06-20T06:14:05.450Z,80.72
2019-06-20T06:15:07.344Z,80.82
2019-06-20T06:16:05.437Z,80.62
2019-06-20T06:17:05.397Z,81.02
2019-06-20T06:18:05.400Z,81.32
2019-06-20T06:19:05.408Z,81.93
2019-06-20T06:20:05.367Z,82.12
2019-06-20T06:21:05.367Z,82.32
2019-06-20T06:22:05.368Z,82.43
2019-06-20T06:23:05.853Z,82.12
2019-06-20T06:24:05.394Z,82.63
2019-06-20T06:25:05.366Z,82.53
2019-06-20T06:26:05.848Z,83.37
2019-06-20T06:27:05.296Z,83.37
2019-06-20T06:28:05.314Z,83.97
2019-06-20T06:29:05.280Z,84.27
2019-06-20T06:30:06.074Z,84.47
2019-06-20T06:31:05.280Z,83.97
2019-06-20T06:32:05.232Z,84.71
2019-06-20T06:33:05.223Z,85.02
2019-06-20T06:34:05.213Z,85.02
2019-06-20T06:35:05.237Z,83.87
2019-06-20T06:36:05.214Z,84.07
2019-06-20T06:37:05.176Z,83.37
2019-06-20T06:38:05.189Z,83.97
2019-06-20T06:39:05.150Z,83.73
2019-06-20T06:40:05.168Z,83.33
2019-06-20T06:41:05.138Z,83.77
2019-06-20T06:42:05.131Z,84.07
2019-06-20T06:43:06.069Z,83.73
2019-06-20T06:44:07.614Z,83.93
2019-06-20T06:45:06.068Z,84.29
2019-06-20T06:46:06.070Z,83.99
2019-06-20T06:47:05.088Z,82.55
2019-06-20T06:48:05.063Z,81.88
2019-06-20T06:49:05.053Z,82.18
2019-06-20T06:50:05.085Z,82.09
2019-06-20T06:51:05.025Z,82.49
2019-06-20T06:52:05.023Z,82.59
2019-06-20T06:53:05.013Z,83.03
2019-06-20T06:54:05.043Z,83.59
2019-06-20T06:55:05.012Z,83.59
2019-06-20T06:56:04.980Z,83.39
2019-06-20T06:57:04.985Z,83.89
2019-06-20T06:58:05.019Z,83.19
2019-06-20T06:59:04.942Z,83.15
2019-06-20T07:00:04.971Z,82.99
2019-06-20T07:01:05.563Z,82.05
2019-06-20T07:02:04.923Z,83.01
2019-06-20T07:03:04.910Z,82.91
2019-06-20T07:04:04.899Z,81.71
2019-06-20T07:05:05.028Z,80.77
2019-06-20T07:06:04.877Z,80.17
2019-06-20T07:07:04.862Z,80.63
2019-06-20T07:08:05.717Z,80.33
2019-06-20T07:09:04.837Z,80.59
2019-06-20T07:10:05.565Z,80.09
2019-06-20T07:11:04.862Z,79.59
2019-06-20T07:12:04.821Z,78.09
2019-06-20T07:13:04.797Z,78.79
2019-06-20T07:14:04.805Z,81.25
2019-06-20T07:15:04.838Z,77.09
2019-06-20T07:16:05.553Z,76.35
2019-06-20T07:17:04.766Z,76.86
2019-06-20T07:18:05.622Z,76.65
2019-06-20T07:19:05.563Z,76.09
2019-06-20T07:20:05.554Z,76.79
2019-06-20T07:21:04.703Z,76.39
2019-06-20T07:22:04.701Z,77.23
2019-06-20T07:23:04.715Z,77.93
2019-06-20T07:24:04.710Z,78.43
2019-06-20T07:25:04.700Z,77.93
2019-06-20T07:26:04.662Z,77.39
2019-06-20T07:27:04.661Z,77.69
2019-06-20T07:28:04.638Z,76.19
2019-06-20T07:29:04.630Z,77.86
2019-06-20T07:30:04.703Z,78.72
2019-06-20T07:31:04.683Z,77.68
2019-06-20T07:32:04.660Z,76.08
2019-06-20T07:33:04.587Z,77.94
2019-06-20T07:34:04.575Z,78.00
2019-06-20T07:35:04.598Z,77.97
2019-06-20T07:36:04.554Z,75.74
2019-06-20T07:37:04.536Z,73.35
2019-06-20T07:38:04.536Z,73.14
2019-06-20T07:39:04.535Z,72.85
2019-06-20T07:40:04.515Z,73.61
2019-06-20T07:41:04.553Z,71.45
2019-06-20T07:42:04.493Z,72.75
2019-06-20T07:43:04.473Z,71.45
2019-06-20T07:44:04.465Z,72.31
2019-06-20T07:45:05.282Z,72.88
2019-06-20T07:46:05.279Z,73.24
2019-06-20T07:47:17.095Z,72.21
2019-06-20T07:48:05.420Z,71.12
2019-06-20T07:49:05.300Z,71.72
2019-06-20T07:50:04.447Z,70.48
2019-06-20T07:51:04.446Z,69.69
2019-06-20T07:52:04.400Z,69.69
2019-06-20T07:53:04.420Z,69.20
2019-06-20T07:54:05.250Z,68.57
2019-06-20T07:55:04.394Z,68.16
2019-06-20T07:56:04.862Z,68.83
2019-06-20T07:57:04.340Z,68.13
2019-06-20T07:58:04.321Z,68.30
2019-06-20T07:59:05.131Z,66.91
2019-06-20T08:00:04.301Z,66.51
2019-06-20T08:01:04.318Z,64.39
2019-06-20T08:02:04.296Z,67.64
2019-06-20T08:03:04.266Z,67.41
2019-06-20T08:04:04.256Z,65.92
2019-06-20T08:05:04.245Z,67.38
2019-06-20T08:06:04.280Z,65.36
2019-06-20T08:07:04.224Z,65.86
2019-06-20T08:08:04.223Z,64.96
2019-06-20T08:09:04.747Z,64.27
2019-06-20T08:10:04.389Z,64.93
2019-06-20T08:11:04.214Z,64.43
2019-06-20T08:12:04.183Z,64.27
2019-06-20T08:13:04.166Z,64.10
2019-06-20T08:14:04.147Z,66.05
2019-06-20T08:15:14.465Z,64.47
2019-06-20T08:16:05.171Z,64.63
2019-06-20T08:17:04.161Z,64.86
2019-06-20T08:18:04.106Z,65.13
2019-06-20T08:19:04.131Z,63.67
2019-06-20T08:20:04.091Z,64.04
2019-06-20T08:21:04.459Z,64.34
2019-06-20T08:22:04.751Z,63.02
2019-06-20T08:23:04.069Z,63.05
2019-06-20T08:24:04.087Z,62.42
2019-06-20T08:25:05.285Z,61.99
2019-06-20T08:26:04.554Z,61.60
2019-06-20T08:27:04.920Z,58.98
2019-06-20T08:28:04.370Z,61.39
2019-06-20T08:29:14.937Z,63.24
2019-06-20T08:30:05.227Z,61.83
2019-06-20T08:31:04.821Z,61.13
2019-06-20T08:32:04.725Z,61.70
2019-06-20T08:33:09.653Z,61.40
2019-06-20T08:34:04.984Z,60.44
2019-06-20T08:35:04.727Z,59.45
2019-06-20T08:36:04.570Z,58.69
2019-06-20T08:37:04.388Z,60.30
2019-06-20T08:38:05.591Z,61.13
2019-06-20T08:39:04.495Z,60.74
2019-06-20T08:40:04.230Z,59.75
2019-06-20T08:41:04.613Z,59.42
2019-06-20T08:42:04.330Z,58.90
2019-06-20T08:43:04.198Z,60.25
2019-06-20T08:44:03.967Z,59.27
2019-06-20T08:45:06.050Z,58.30
2019-06-20T08:46:04.529Z,59.03
2019-06-20T08:47:03.947Z,59.30
2019-06-20T08:48:04.735Z,59.19
2019-06-20T08:49:03.780Z,59.49
2019-06-20T08:50:03.929Z,58.90
2019-06-20T08:51:04.521Z,59.59
2019-06-20T08:52:03.768Z,59.49
2019-06-20T08:53:03.778Z,58.70
2019-06-20T08:54:03.730Z,57.74
2019-06-20T08:55:03.755Z,59.30
2019-06-20T08:56:05.423Z,59.59
2019-06-20T08:57:05.727Z,57.81
2019-06-20T08:58:05.449Z,59.30
2019-06-20T08:59:04.781Z,59.00
2019-06-20T09:04:03.633Z,59.94
2019-06-20T09:09:04.477Z,61.26
2019-06-20T09:10:04.254Z,59.08
2019-06-20T09:11:04.062Z,59.45
2019-06-20T09:12:05.002Z,59.42
2019-06-20T09:13:03.828Z,59.32
2019-06-20T09:14:04.095Z,58.95
2019-06-20T09:15:04.342Z,60.31
2019-06-20T09:16:03.501Z,60.71
2019-06-20T09:17:03.521Z,59.92
2019-06-20T09:18:03.530Z,58.86
2019-06-20T09:19:03.459Z,58.65
2019-06-20T09:20:03.457Z,60.54
2019-06-20T09:21:03.454Z,60.14
2019-06-20T09:22:05.026Z,59.78
2019-06-20T09:23:03.428Z,59.94
2019-06-20T09:24:04.181Z,59.35
2019-06-20T09:25:03.418Z,60.24
2019-06-20T09:26:03.891Z,58.46
2019-06-20T09:27:04.273Z,58.86
2019-06-20T09:28:03.375Z,58.23
2019-06-20T09:29:04.147Z,58.65
2019-06-20T09:30:03.608Z,58.26
2019-06-20T09:31:04.125Z,59.65
2019-06-20T09:32:04.649Z,58.59
2019-06-20T09:33:04.281Z,60.77
2019-06-20T09:34:05.301Z,60.44
2019-06-20T09:35:03.292Z,60.11
2019-06-20T09:36:04.012Z,59.55
2019-06-20T09:37:04.037Z,58.92
2019-06-20T09:38:03.508Z,59.30
2019-06-20T09:39:03.797Z,59.03
2019-06-20T09:40:03.652Z,59.03
2019-06-20T09:41:03.487Z,58.30
2019-06-20T09:42:03.476Z,57.81
2019-06-20T09:43:03.292Z,58.28
2019-06-20T09:44:03.241Z,58.37
2019-06-20T09:45:03.196Z,59.76
2019-06-20T09:46:03.191Z,59.14
2019-06-20T09:47:03.199Z,58.84
2019-06-20T09:48:03.159Z,57.51
2019-06-20T09:49:03.149Z,58.90
2019-06-20T09:50:03.150Z,57.61
2019-06-20T09:51:03.129Z,59.39
2019-06-20T09:52:03.149Z,59.79
2019-06-20T09:53:03.106Z,59.89
2019-06-20T09:54:03.090Z,58.57
2019-06-20T09:55:03.105Z,58.67
2019-06-20T09:56:03.177Z,59.36
2019-06-20T09:57:03.101Z,58.18
2019-06-20T09:58:03.054Z,58.18
2019-06-20T09:59:04.027Z,58.18
2019-06-20T10:00:10.008Z,57.56
2019-06-20T10:01:04.036Z,56.59
2019-06-20T10:02:03.014Z,57.46
2019-06-20T10:03:03.117Z,57.85
2019-06-20T10:04:03.037Z,57.75
2019-06-20T10:05:02.977Z,56.86
2019-06-20T10:06:13.474Z,57.06
2019-06-20T10:07:03.963Z,57.16
2019-06-20T10:08:02.976Z,57.65
2019-06-20T10:09:02.943Z,57.06
2019-06-20T10:10:02.924Z,56.27
2019-06-20T10:11:03.544Z,56.20
2019-06-20T10:12:02.929Z,56.52
2019-06-20T10:13:02.933Z,57.31
2019-06-20T10:14:02.886Z,57.39
2019-06-20T10:15:02.948Z,58.28
2019-06-20T10:16:02.961Z,57.78
2019-06-20T10:17:02.842Z,57.06
2019-06-20T10:18:02.860Z,57.16
2019-06-20T10:19:02.829Z,56.44
2019-06-20T10:20:02.883Z,55.52
2019-06-20T10:21:02.868Z,55.13
2019-06-20T10:22:02.799Z,55.62
2019-06-20T10:23:03.546Z,55.03
2019-06-20T10:24:02.809Z,53.99
2019-06-20T10:25:02.765Z,55.47
2019-06-20T10:26:02.757Z,56.40
2019-06-20T10:27:02.741Z,56.57
2019-06-20T10:28:02.813Z,56.89
2019-06-20T10:29:02.805Z,56.96
2019-06-20T10:30:13.811Z,56.24
2019-06-20T10:31:03.707Z,56.34
2019-06-20T10:32:02.692Z,54.83
2019-06-20T10:33:02.713Z,55.40
2019-06-20T10:34:02.695Z,53.39
2019-06-20T10:35:03.935Z,53.77
2019-06-20T10:36:02.654Z,52.31
2019-06-20T10:37:03.500Z,52.53
2019-06-20T10:38:02.692Z,53.05
2019-06-20T10:39:02.615Z,54.71
2019-06-20T10:40:02.688Z,54.61
2019-06-20T10:41:02.602Z,54.51
2019-06-20T10:42:02.606Z,54.41
2019-06-20T10:43:02.605Z,54.28
2019-06-20T10:44:02.560Z,53.79
2019-06-20T10:45:02.551Z,53.20
2019-06-20T10:46:02.585Z,53.57
2019-06-20T10:47:02.710Z,53.10
2019-06-20T10:48:09.564Z,52.80
2019-06-20T10:49:02.503Z,52.04
2019-06-20T10:50:02.521Z,53.52
2019-06-20T10:51:02.555Z,53.72
2019-06-20T10:52:02.474Z,53.42
2019-06-20T10:53:02.496Z,52.63
2019-06-20T10:54:02.496Z,53.00
2019-06-20T10:55:02.445Z,52.31
2019-06-20T10:56:02.522Z,52.31
2019-06-20T10:57:02.431Z,52.28
2019-06-20T10:58:03.241Z,52.70
2019-06-20T10:59:02.422Z,53.50
2019-06-20T11:00:02.429Z,51.89
2019-06-20T11:01:02.374Z,51.89
2019-06-20T11:02:02.363Z,51.32
2019-06-20T11:03:02.351Z,50.36
2019-06-20T11:04:02.432Z,49.85
2019-06-20T11:05:02.332Z,49.99
2019-06-20T11:06:02.368Z,49.87
2019-06-20T11:07:02.316Z,49.97
2019-06-20T11:08:02.310Z,47.58
2019-06-20T11:09:03.230Z,47.29
2019-06-20T11:10:02.286Z,47.56
2019-06-20T11:11:02.276Z,46.21
2019-06-20T11:12:02.267Z,46.13
2019-06-20T11:13:02.248Z,47.44
2019-06-20T11:14:02.268Z,49.18
2019-06-20T11:15:02.245Z,47.98
2019-06-20T11:16:02.216Z,47.58
2019-06-20T11:17:02.751Z,48.37
2019-06-20T11:18:02.465Z,48.15
2019-06-20T11:19:02.215Z,48.23
2019-06-20T11:20:03.071Z,45.54
2019-06-20T11:21:02.212Z,46.62
2019-06-20T11:22:02.239Z,48.69
2019-06-20T11:23:02.275Z,46.03
2019-06-20T11:24:02.781Z,46.55
2019-06-20T11:25:02.122Z,46.08
2019-06-20T11:26:02.118Z,45.59
2019-06-20T11:27:02.103Z,45.78
2019-06-20T11:28:02.099Z,45.88
2019-06-20T11:29:02.111Z,46.97
2019-06-20T11:30:02.071Z,46.28
2019-06-20T11:31:02.062Z,46.50
2019-06-20T11:32:02.061Z,47.09
2019-06-20T11:33:02.065Z,48.64
2019-06-20T11:34:02.062Z,47.92
2019-06-20T11:35:02.020Z,47.73
2019-06-20T11:36:02.082Z,48.13
2019-06-20T11:37:02.008Z,47.04
2019-06-20T11:38:01.996Z,47.44
2019-06-20T11:39:02.069Z,45.59
2019-06-20T11:40:02.007Z,45.31
2019-06-20T11:41:01.969Z,45.81
2019-06-20T11:42:01.985Z,45.34
2019-06-20T11:43:01.942Z,46.62
2019-06-20T11:44:02.005Z,46.03
2019-06-20T11:45:01.947Z,46.62
2019-06-20T11:46:01.908Z,46.59
2019-06-20T11:47:01.896Z,46.99
2019-06-20T11:48:01.928Z,45.87
2019-06-20T11:49:01.883Z,48.54
2019-06-20T11:50:01.987Z,47.53
2019-06-20T11:51:01.902Z,47.23
2019-06-20T11:52:02.769Z,45.87
2019-06-20T11:53:01.872Z,45.38
2019-06-20T11:54:01.824Z,45.57
2019-06-20T11:55:01.915Z,45.28
2019-06-20T11:56:02.451Z,45.16
2019-06-20T11:57:01.795Z,44.07
2019-06-20T11:58:01.784Z,44.57
2019-06-20T11:59:01.772Z,44.15
2019-06-20T12:00:01.793Z,44.74
2019-06-20T12:01:03.886Z,43.42
2019-06-20T12:02:01.753Z,44.26
2019-06-20T12:03:01.732Z,43.85
2019-06-20T12:04:01.722Z,43.33
2019-06-20T12:05:01.758Z,42.35
2019-06-20T12:06:01.708Z,42.04
2019-06-20T12:07:01.690Z,41.21
2019-06-20T12:08:02.392Z,41.61
2019-06-20T12:09:02.401Z,40.51
2019-06-20T12:10:01.690Z,39.62
2019-06-20T12:11:01.676Z,39.23
2019-06-20T12:12:01.636Z,39.41
2019-06-20T12:13:01.641Z,40.58
2019-06-20T12:14:01.620Z,39.90
2019-06-20T12:15:01.630Z,41.45
2019-06-20T12:16:01.588Z,41.13
2019-06-20T12:17:01.588Z,40.25
2019-06-20T12:18:01.582Z,40.64
2019-06-20T12:19:01.574Z,40.76
2019-06-20T12:20:01.611Z,40.27
2019-06-20T12:21:01.546Z,40.74
2019-06-20T12:22:01.534Z,40.16
2019-06-20T12:23:01.528Z,41.82
2019-06-20T12:24:01.516Z,41.27
2019-06-20T12:25:01.525Z,41.76
2019-06-20T12:26:01.496Z,41.29
2019-06-20T12:27:02.454Z,42.00
2019-06-20T12:28:01.509Z,42.29
2019-06-20T12:29:01.462Z,42.29
2019-06-20T12:30:02.305Z,42.96
2019-06-20T12:31:01.469Z,43.18
2019-06-20T12:32:01.423Z,42.79
2019-06-20T12:33:01.595Z,42.98
2019-06-20T12:34:01.411Z,42.79
2019-06-20T12:35:01.433Z,43.86
2019-06-20T12:36:01.449Z,44.27
2019-06-20T12:37:01.372Z,44.18
2019-06-20T12:38:01.413Z,43.88
2019-06-20T12:39:01.358Z,43.37
2019-06-20T12:40:01.379Z,44.74
2019-06-20T12:41:01.859Z,42.96
2019-06-20T12:42:01.338Z,42.49
2019-06-20T12:43:01.319Z,42.86
2019-06-20T12:44:01.430Z,42.86
2019-06-20T12:45:01.836Z,42.18
2019-06-20T12:46:01.940Z,43.47
2019-06-20T12:47:02.228Z,43.47
2019-06-20T12:48:01.265Z,43.10
2019-06-20T12:49:01.259Z,42.41
2019-06-20T12:50:01.912Z,43.51
2019-06-20T12:51:01.235Z,44.20
2019-06-20T12:52:01.219Z,44.22
2019-06-20T12:53:01.757Z,44.91
2019-06-20T12:54:01.208Z,45.20
2019-06-20T12:55:01.224Z,45.32
2019-06-20T12:56:01.188Z,45.57
2019-06-20T12:57:01.177Z,43.88
2019-06-20T12:58:01.164Z,45.26
2019-06-20T12:59:01.211Z,43.79
2019-06-20T13:00:01.197Z,43.69